Date,TemperatureHighF,TemperatureAvgF,TemperatureLowF,DewpointHighF,DewpointAvgF,DewpointLowF,HumidityHigh,HumidityAvg,HumidityLow,PressureMaxIn,PressureMinIn,WindSpeedMaxMPH,WindSpeedAvgMPH,GustSpeedMaxMPH,PrecipitationSumIn
2013-1-1,47,33,20,26,19,13,87,59,31,30.46,30.31,6,0,10,0.00
2013-1-2,50,34,22,19,15,10,74,47,26,30.50,30.32,6,1,10,0.00
2013-1-3,33,30,26,30,23,11,93,76,45,30.59,30.39,6,1,11,0.09
2013-1-4,35,31,24,28,26,21,91,82,70,30.63,30.52,3,0,6,0.06
2013-1-5,32,24,17,28,22,15,94,90,82,30.73,30.58,5,0,9,0.00
2013-1-6,47,32,15,32,22,13,94,70,44,30.78,30.34,6,1,13,0.01
2013-1-7,57,46,33,34,29,25,77,54,37,30.35,29.95,7,2,14,0.00
2013-1-8,61,46,33,32,23,15,80,46,18,30.16,29.93,10,1,20,0.00
2013-1-9,62,45,29,25,20,15,64,39,21,30.44,30.15,9,2,14,0.00
2013-1-10,59,41,23,32,25,17,79,54,33,30.28,30.02,6,0,11,0.00
2013-1-11,51,44,27,30,20,9,58,41,27,30.03,29.93,20,7,29,0.00
2013-1-12,42,31,20,13,8,0,66,40,17,30.32,30.02,16,4,23,0.00
2013-1-13,42,26,10,11,6,2,72,45,23,30.44,30.24,6,1,11,0.00
2013-1-14,43,33,21,21,11,-1,65,42,18,30.30,30.19,11,3,18,0.00
2013-1-15,38,28,20,10,3,-6,60,36,16,30.64,30.28,10,2,16,0.00
2013-1-16,49,31,19,9,4,-3,48,32,19,30.75,30.59,6,1,10,0.00
2013-1-17,57,39,19,24,15,5,59,39,24,30.79,30.57,8,1,14,0.00
2013-1-18,59,40,24,24,18,15,71,45,22,30.57,30.38,4,0,9,0.00
2013-1-19,64,43,23,22,17,10,67,39,16,30.55,30.38,4,0,8,0.00
2013-1-20,65,42,25,17,13,9,53,34,13,30.48,30.28,4,0,12,0.00
2013-1-21,67,46,28,16,13,9,47,29,13,30.43,30.26,5,0,9,0.00
2013-1-22,68,47,33,17,13,10,41,27,12,30.44,30.29,6,1,11,0.00
2013-1-23,70,46,27,20,15,8,47,31,15,30.53,30.36,2,0,10,0.00
2013-1-24,68,50,31,32,23,13,54,36,20,30.45,30.28,1,0,4,0.00
2013-1-25,65,53,40,43,36,30,69,54,41,30.35,30.17,3,0,7,0.00
2013-1-26,68,57,47,50,45,38,89,67,46,30.22,29.99,10,1,16,0.00
2013-1-27,65,55,44,49,43,35,92,66,40,30.09,29.98,14,3,21,0.02
2013-1-28,65,50,33,42,34,29,89,59,27,30.09,29.90,21,7,31,0.00
2013-1-29,46,40,35,34,21,12,72,48,27,30.22,29.92,29,13,42,0.00
2013-1-30,51,38,25,24,14,3,81,42,15,30.49,30.22,10,2,15,0.00
2013-1-31,58,40,21,22,16,8,66,39,21,30.53,30.38,5,1,11,0.00
2013-2-1,65,43,25,22,17,12,65,39,17,30.47,30.30,4,0,9,0.00
2013-2-2,67,46,27,21,16,8,60,34,12,30.53,30.39,5,0,11,0.00
2013-2-3,63,49,35,38,20,13,63,34,17,30.43,30.09,13,0,27,0.00
2013-2-4,65,51,36,35,30,24,71,47,30,30.17,30.02,7,1,12,0.00
2013-2-5,69,49,31,29,25,20,72,43,20,30.21,30.04,2,0,10,0.00
2013-2-6,67,51,31,33,28,21,74,44,23,30.12,29.97,12,2,19,0.00
2013-2-7,66,51,34,34,27,21,74,42,19,30.22,30.09,7,1,14,0.00
2013-2-8,69,57,49,31,23,10,42,29,14,30.19,29.86,13,6,27,0.00
2013-2-9,60,47,38,26,17,11,45,31,19,30.09,29.80,27,9,34,0.00
2013-2-10,54,40,26,20,14,8,68,38,16,30.19,30.07,11,2,16,0.00
2013-2-11,60,41,20,32,14,6,74,36,14,30.22,30.02,13,2,20,0.00
2013-2-12,52,40,28,32,17,2,80,46,15,30.33,30.14,14,3,20,0.00
2013-2-13,56,39,24,15,11,5,61,35,15,30.41,30.23,6,1,14,0.00
2013-2-14,62,42,21,20,13,6,54,34,16,30.37,30.17,8,0,12,0.00
2013-2-15,60,44,32,26,18,10,49,37,16,30.53,30.33,5,0,11,0.00
2013-2-16,62,42,23,20,14,7,70,36,12,30.62,30.33,3,0,10,0.00
2013-2-17,70,47,20,14,8,2,56,26,7,30.33,29.93,13,2,22,0.00
2013-2-18,65,53,35,20,9,3,32,18,9,30.15,30.00,15,4,21,0.00
2013-2-19,57,45,31,46,24,6,93,50,15,30.14,29.93,9,2,16,0.13
2013-2-20,61,46,34,43,30,16,96,63,19,29.94,29.65,25,9,34,0.02
2013-2-21,51,40,31,25,24,22,74,54,32,30.14,29.88,18,9,25,0.00
2013-2-22,55,42,26,27,22,16,83,49,24,30.25,30.09,17,5,22,0.00
2013-2-23,62,44,24,22,18,14,70,38,19,30.26,29.92,10,2,17,0.00
2013-2-24,59,40,27,26,19,6,71,46,19,30.12,29.74,27,9,39,0.00
2013-2-25,55,37,20,17,12,7,67,39,15,30.32,30.11,9,2,15,0.00
2013-2-26,66,44,20,18,7,-4,59,27,6,30.22,29.95,21,5,26,0.00
2013-2-27,55,42,28,12,3,-2,41,21,13,30.42,30.21,6,1,16,0.00
2013-2-28,59,42,25,14,6,-1,48,25,9,30.53,30.39,7,1,11,0.00
2013-3-1,67,46,24,16,10,1,46,25,13,30.56,30.38,8,0,13,0.00
2013-3-2,72,51,30,21,16,10,51,27,12,30.54,30.29,3,0,11,0.00
2013-3-3,80,57,30,22,13,-4,60,25,4,30.30,29.96,20,4,30,0.00
2013-3-4,77,61,45,29,19,12,30,21,10,30.08,29.75,23,6,35,0.00
2013-3-5,65,54,40,28,24,19,48,33,22,30.33,30.08,14,6,23,0.00
2013-3-6,77,62,52,28,26,24,33,26,16,30.26,29.97,9,3,19,0.00
2013-3-7,77,61,39,30,23,8,58,27,8,30.08,29.90,11,2,20,0.00
2013-3-8,67,60,51,49,33,22,67,37,22,29.99,29.80,20,6,26,0.01
2013-3-9,55,47,38,36,28,20,68,49,26,30.12,29.85,23,11,32,0.00
2013-3-10,58,44,28,31,24,20,84,49,26,30.33,30.11,9,2,15,0.00
2013-3-11,68,48,27,25,18,13,68,37,13,30.38,30.14,8,1,12,0.00
2013-3-12,63,41,30,22,17,14,60,39,20,30.30,30.19,5,0,7,0.00
2013-3-15,66,63,58,15,12,9,18,14,11,29.96,29.95,0,0,1,0.00
2013-3-16,84,65,45,23,15,5,34,16,5,29.95,29.72,18,4,26,0.00
2013-3-17,78,63,42,26,18,12,40,20,9,29.91,29.73,24,7,33,0.00
2013-3-18,77,63,49,23,14,4,34,16,6,30.03,29.89,14,4,21,0.00
2013-3-19,77,61,42,26,18,8,37,20,12,30.11,29.93,16,4,22,0.00
2013-3-20,72,60,49,35,28,22,49,31,21,30.22,29.90,8,2,16,0.00
2013-3-21,80,63,45,37,29,23,61,32,13,29.90,29.67,22,7,33,0.00
2013-3-22,78,65,50,32,26,18,39,24,12,29.80,29.60,21,6,33,0.00
2013-3-23,72,61,48,31,14,-14,46,20,5,30.00,29.75,29,10,40,0.00
2013-3-24,65,49,31,13,1,-12,28,15,7,30.21,29.94,7,2,14,0.00
2013-3-25,62,48,31,15,9,3,42,21,11,30.30,30.06,8,3,19,0.00
2013-3-26,71,56,45,23,16,11,27,21,14,30.31,30.05,9,4,19,0.00
2013-3-27,78,60,41,30,22,17,47,25,12,30.15,29.98,12,1,19,0.00
2013-3-28,81,65,48,33,26,21,48,25,13,30.13,29.97,11,2,19,0.00
2013-3-29,83,68,50,32,23,13,46,21,9,30.12,29.96,13,3,18,0.00
2013-3-30,81,66,44,31,22,14,44,21,8,30.12,29.92,11,2,16,0.00
2013-3-31,81,67,50,34,27,22,43,24,12,30.03,29.88,11,2,17,0.00
2013-4-1,83,65,43,31,24,10,55,26,7,30.04,29.82,13,3,19,0.00
2013-4-5,78,69,64,24,20,16,21,16,10,29.88,29.80,7,1,7,0.00
2013-4-6,82,66,48,32,25,14,51,23,9,29.96,29.78,16,4,24,0.00
2013-4-7,83,68,48,33,26,22,50,22,12,29.91,29.69,16,5,21,0.00
2013-4-8,83,69,51,33,26,18,41,22,9,29.74,29.42,20,8,33,0.00
2013-4-9,66,58,51,38,29,19,59,34,18,29.89,29.44,23,11,32,0.00
2013-4-10,65,54,40,32,26,17,67,36,17,30.02,29.89,18,7,27,0.00
2013-4-11,75,58,34,24,19,9,61,26,9,30.05,29.80,12,2,17,0.00
2013-4-12,79,64,46,32,22,16,41,21,11,29.91,29.73,6,0,14,0.00
2013-4-13,81,69,53,33,24,14,38,21,9,29.83,29.64,15,4,25,0.00
2013-4-14,81,69,53,29,25,20,38,20,12,29.78,29.61,20,7,28,0.00
2013-4-15,84,70,51,33,24,18,45,21,9,29.81,29.66,17,7,30,0.00
2013-4-16,86,70,44,30,19,9,50,18,6,29.85,29.66,17,6,27,0.00
2013-4-17,79,67,51,29,21,15,36,18,10,29.91,29.58,23,10,33,0.00
2013-4-18,66,54,42,24,14,-12,45,24,4,30.23,29.90,12,3,18,0.00
2013-4-19,68,52,31,13,3,-16,36,17,3,30.40,30.11,6,1,12,0.00
2013-4-20,80,60,33,23,11,-11,64,22,3,30.12,29.86,18,4,27,0.00
2013-4-21,84,67,42,23,15,7,38,16,6,30.13,29.90,12,2,22,0.00
2013-4-22,89,68,43,28,16,6,47,16,5,30.03,29.74,14,3,23,0.00
2013-4-23,86,70,49,27,18,7,37,16,6,29.93,29.70,19,6,31,0.00
2013-4-24,75,57,47,30,27,25,44,33,17,30.15,29.94,10,6,23,0.00
2013-4-25,86,79,64,42,21,4,25,13,5,29.93,29.79,14,6,20,0.00
2013-4-26,83,66,46,41,22,4,53,22,5,30.11,29.93,10,2,22,0.00
2013-4-27,86,69,48,38,25,5,52,22,5,30.14,29.92,7,1,13,0.00
2013-4-28,88,68,48,39,29,16,56,28,7,30.02,29.79,8,1,14,0.00
2013-4-29,92,70,45,39,23,-9,67,25,3,29.89,29.67,6,1,10,0.00
2013-4-30,92,69,50,32,21,5,44,20,4,29.78,29.67,10,1,17,0.00
2013-5-1,88,86,78,17,12,3,10,7,4,29.85,29.81,10,4,15,0.00
2013-5-2,54,52,50,20,19,18,29,27,26,30.43,30.40,9,6,23,0.00
2013-5-3,68,54,41,32,21,13,61,30,12,30.50,30.07,7,2,15,0.00
2013-5-4,84,63,39,34,24,15,72,31,10,30.08,29.84,7,2,13,0.00
2013-5-5,84,74,64,36,24,16,25,16,12,30.00,29.79,10,5,20,0.00
2013-5-6,82,71,58,42,33,23,47,26,15,29.94,29.82,16,4,22,0.00
2013-5-7,81,67,47,38,32,25,67,30,14,30.03,29.83,9,2,17,0.00
2013-5-8,81,68,51,36,29,19,49,25,10,30.01,29.85,12,4,25,0.00
2013-5-9,81,65,45,36,30,25,56,30,13,30.02,29.88,10,2,19,0.00
2013-5-10,76,65,53,48,40,31,81,43,23,30.17,29.93,16,3,22,0.08
2013-5-11,77,63,46,49,42,32,91,52,21,30.30,30.16,7,2,15,0.00
2013-5-12,80,68,51,45,37,30,70,35,17,30.28,30.06,7,2,16,0.00
2013-5-13,84,69,52,40,30,12,58,28,8,30.23,30.03,9,2,20,0.00
2013-5-14,85,70,49,44,37,28,70,34,13,30.11,29.87,7,1,12,0.00
2013-5-15,93,74,52,43,37,28,70,33,12,29.98,29.75,16,4,22,0.00
2013-5-16,92,75,52,43,33,19,61,27,7,29.92,29.72,13,3,26,0.00
2013-5-17,93,74,51,44,33,17,59,28,8,29.90,29.75,8,2,15,0.00
2013-5-18,89,76,60,41,25,8,42,17,5,29.89,29.71,14,4,22,0.00
2013-5-19,87,73,54,36,26,19,40,20,9,29.89,29.69,14,4,21,0.00
2013-5-20,89,75,53,40,29,19,54,21,8,29.87,29.66,16,5,26,0.00
2013-5-21,87,72,57,38,28,12,42,21,6,29.92,29.74,8,1,15,0.00
2013-5-22,93,73,47,42,29,11,75,28,6,29.89,29.72,11,2,16,0.00
2013-5-23,97,78,56,50,34,21,60,25,8,29.86,29.67,9,2,14,0.00
2013-5-24,94,78,55,54,44,32,80,36,12,29.92,29.75,6,2,15,0.00
2013-5-25,96,82,70,57,41,17,54,29,6,29.89,29.72,10,3,17,0.00
2013-5-26,95,77,55,42,26,9,53,19,6,29.94,29.77,11,2,23,0.00
2013-5-27,94,74,50,37,24,0,55,20,3,29.89,29.69,8,2,15,0.00
2013-5-28,92,75,48,39,23,2,61,21,4,29.75,29.55,13,3,26,0.00
2013-5-29,88,77,61,37,29,13,28,17,9,29.69,29.54,16,6,27,0.00
2013-5-30,92,78,60,43,36,30,41,24,15,29.81,29.64,13,3,19,0.00
2013-5-31,85,68,58,43,38,33,50,33,20,29.84,29.75,4,0,10,0.00
2013-6-1,87,85,80,41,34,32,23,17,15,29.81,29.76,8,3,18,0.00
2013-6-2,97,83,73,57,50,41,45,32,19,29.85,29.59,16,6,22,0.00
2013-6-3,98,81,65,56,45,19,64,35,6,29.84,29.65,9,2,18,0.00
2013-6-4,98,80,52,43,35,22,66,25,8,29.87,29.69,9,2,19,0.00
2013-6-5,97,81,58,46,32,17,55,22,6,29.81,29.65,9,2,15,0.00
2013-6-6,94,79,58,50,42,25,52,28,12,29.84,29.71,9,2,17,0.00
2013-6-7,92,80,70,60,51,34,61,38,18,29.85,29.65,15,3,26,0.00
2013-6-8,101,84,61,55,43,24,71,31,9,29.78,29.55,13,2,20,0.00
2013-6-9,102,87,69,53,44,23,39,23,10,29.76,29.62,7,2,14,0.00
2013-6-10,103,90,77,56,50,36,47,27,11,29.81,29.64,7,2,11,0.00
2013-6-11,105,88,68,54,45,27,59,25,7,29.81,29.63,4,1,10,0.00
2013-6-12,105,88,64,55,46,33,61,27,10,29.82,29.65,4,1,12,0.00
2013-6-13,99,88,77,60,54,43,49,34,15,29.80,29.64,9,3,18,0.00
2013-6-14,97,83,70,60,55,48,66,41,23,29.82,29.65,7,2,18,0.00
2013-6-15,100,84,67,63,53,38,76,39,12,29.86,29.71,15,1,22,0.01
2013-6-16,100,87,70,57,51,45,59,31,16,29.88,29.70,11,1,15,0.00
2013-6-17,99,84,68,72,57,49,70,43,19,29.84,29.66,9,0,24,0.23
2013-6-18,96,84,74,60,55,41,59,40,17,29.89,29.67,7,3,18,0.00
2013-6-19,102,88,68,64,48,22,79,34,7,29.76,29.57,11,2,18,0.00
2013-6-20,101,88,69,61,49,38,65,29,13,29.78,29.62,13,3,17,0.00
2013-6-21,100,86,66,60,51,35,69,33,14,29.83,29.65,8,2,15,0.00
2013-6-22,100,82,61,52,41,28,59,28,12,29.86,29.65,12,2,19,0.00
2013-6-23,100,82,59,56,41,30,62,28,9,29.83,29.63,11,2,19,0.00
2013-6-24,99,83,62,53,44,36,63,29,13,29.83,29.67,10,2,17,0.00
2013-6-25,99,84,62,49,36,15,56,22,7,29.88,29.74,10,2,17,0.00
2013-6-26,104,82,56,54,32,7,52,21,4,29.92,29.77,4,0,10,0.00
2013-6-27,107,84,57,51,34,15,55,22,4,29.93,29.76,5,1,10,0.00
2013-6-28,100,90,79,48,43,33,29,20,12,29.96,29.78,7,2,15,0.00
2013-6-29,103,93,76,56,46,33,49,22,9,29.92,29.72,9,2,18,0.00
2013-6-30,98,88,75,62,52,47,64,31,19,29.87,29.66,10,3,20,0.08
2013-7-1,86,76,67,62,60,55,83,59,38,30.06,29.86,11,3,23,0.06
2013-7-2,88,76,63,61,56,50,88,53,29,30.11,29.90,10,2,22,0.00
2013-7-3,93,77,65,62,57,49,86,54,24,30.04,29.74,9,1,16,0.10
2013-7-4,96,79,64,63,58,51,91,55,24,29.85,29.68,7,1,15,0.00
2013-7-5,99,83,65,60,56,43,77,43,15,29.82,29.61,6,1,14,0.00
2013-7-6,101,86,70,67,59,52,74,43,21,29.75,29.58,9,1,20,0.00
2013-7-7,102,88,76,64,57,49,63,37,20,29.77,29.64,5,1,15,0.00
2013-7-8,98,88,74,60,54,49,61,34,19,29.88,29.74,6,2,18,0.00
2013-7-9,100,89,74,62,57,48,63,36,22,29.92,29.73,5,2,12,0.00
2013-7-10,98,86,76,62,59,56,59,42,26,29.92,29.72,9,2,17,0.00
2013-7-11,97,83,72,65,60,54,68,47,26,29.88,29.74,6,1,12,0.00
2013-7-12,99,85,70,67,59,53,82,45,22,29.87,29.69,9,1,13,0.01
2013-7-13,99,86,68,64,57,48,79,41,20,29.88,29.71,9,2,17,0.00
2013-7-14,101,89,74,64,54,48,70,31,20,29.83,29.60,8,2,17,0.12
2013-7-15,84,76,69,65,60,50,86,58,44,29.99,29.70,10,2,23,0.01
2013-7-16,86,76,66,59,53,48,77,47,27,30.05,29.94,5,2,14,0.00
2013-7-17,84,75,68,60,57,53,67,53,37,30.11,30.01,11,3,23,0.00
2013-7-18,77,69,65,68,65,60,95,87,65,30.11,30.00,5,0,12,0.47
2013-7-19,85,75,67,68,65,62,95,73,47,30.07,29.85,6,1,15,0.00
2013-7-20,90,77,67,72,66,60,92,71,39,29.92,29.75,9,1,17,0.22
2013-7-21,94,79,66,67,63,51,95,64,25,29.89,29.72,9,1,15,0.28
2013-7-22,96,78,67,69,65,60,93,68,32,29.89,29.74,11,1,18,0.00
2013-7-23,95,78,68,68,65,58,90,68,31,29.91,29.71,11,1,19,0.05
2013-7-24,93,79,68,70,66,61,95,68,37,29.98,29.80,17,2,33,0.22
2013-7-25,86,76,66,73,67,64,94,75,52,30.04,29.92,6,1,11,0.21
2013-7-26,93,77,71,72,69,62,95,78,39,30.05,29.91,7,0,13,0.11
2013-7-27,85,76,67,70,65,62,95,73,49,30.08,29.88,5,0,13,0.11
2013-7-28,90,76,67,72,67,60,93,74,44,29.92,29.76,13,0,17,0.19
2013-7-29,98,81,68,69,64,53,91,60,24,29.94,29.83,4,0,9,0.00
2013-7-30,98,82,68,67,61,55,83,52,24,30.01,29.90,7,0,23,0.00
2013-7-31,98,83,68,68,62,51,85,54,22,30.04,29.86,13,1,22,0.21
2013-8-1,96,81,71,68,63,53,86,58,25,30.01,29.83,7,1,13,0.00
2013-8-2,98,83,67,67,62,56,90,54,25,29.91,29.76,4,0,11,0.00
2013-8-3,98,81,68,66,63,56,84,57,26,29.92,29.77,4,0,9,0.00
2013-8-4,100,84,68,65,60,45,83,48,17,29.94,29.75,4,0,11,0.00
2013-8-5,97,84,70,63,60,53,74,47,23,29.92,29.74,8,1,12,0.00
2013-8-6,94,81,68,64,59,53,80,50,26,29.91,29.79,8,2,14,0.00
2013-8-7,91,79,65,64,59,54,86,54,29,29.93,29.78,8,2,15,0.00
2013-8-8,96,79,62,64,56,46,93,52,20,29.93,29.77,4,1,11,0.00
2013-8-9,96,81,61,57,52,43,81,41,18,29.93,29.82,6,1,11,0.00
2013-8-10,84,81,75,64,58,53,65,46,36,30.03,29.92,9,2,20,0.01
2013-8-11,91,74,63,67,63,59,95,71,34,30.09,29.91,10,2,17,0.52
2013-8-12,96,83,69,66,63,58,84,52,30,29.99,29.82,3,1,11,0.00
2013-8-13,94,80,72,69,64,55,84,61,31,29.98,29.83,4,0,10,0.01
2013-8-14,96,79,66,67,62,49,93,61,22,30.03,29.82,7,1,18,0.18
2013-8-15,94,79,69,67,63,55,88,63,28,30.02,29.89,4,0,8,0.01
2013-8-16,98,82,66,65,59,46,80,50,18,30.01,29.86,5,0,13,0.00
2013-8-17,100,83,65,64,57,47,87,48,18,30.00,29.81,4,0,14,0.00
2013-8-18,99,85,69,61,55,48,64,39,19,29.94,29.79,5,0,11,0.00
2013-8-19,99,81,65,65,58,49,84,51,22,29.94,29.78,10,1,16,0.00
2013-8-20,93,81,68,65,61,51,87,53,26,29.92,29.80,4,0,10,0.10
2013-8-21,95,81,64,63,58,48,89,50,20,29.94,29.81,7,1,13,0.00
2013-8-22,91,82,74,54,47,39,47,32,18,29.89,29.80,1,0,6,0.00
2013-8-23,92,80,69,59,56,53,67,45,27,29.95,29.79,9,2,20,0.00
2013-8-24,90,81,74,62,59,55,57,47,33,29.95,29.82,7,2,17,0.00
2013-8-25,93,82,68,66,59,53,84,48,28,30.02,29.87,6,2,13,0.00
2013-8-26,91,83,77,60,56,51,51,40,28,30.02,29.85,7,2,15,0.00
2013-8-27,87,80,69,64,59,54,68,51,37,29.97,29.84,8,2,15,0.00
2013-8-28,82,73,69,69,65,62,94,77,52,30.05,29.89,3,0,10,0.06
2013-8-29,82,73,67,69,67,65,94,82,59,30.14,30.03,5,0,10,0.17
2013-8-30,91,76,63,70,66,62,97,74,43,30.09,29.88,4,0,7,0.01
2013-8-31,96,80,65,68,63,57,95,63,28,29.94,29.76,3,0,7,0.00
2013-9-1,98,83,65,64,56,45,89,47,17,29.87,29.74,4,1,11,0.00
2013-9-2,96,83,68,62,56,49,69,41,25,29.92,29.76,8,2,15,0.00
2013-9-3,94,83,70,63,56,49,71,42,24,29.98,29.81,5,1,14,0.00
2013-9-4,93,82,66,60,52,46,69,39,21,30.02,29.89,6,1,17,0.00
2013-9-5,93,84,70,59,50,42,60,32,18,30.02,29.89,7,1,14,0.00
2013-9-6,94,81,67,66,56,47,69,45,27,30.02,29.83,6,1,11,0.00
2013-9-7,93,85,77,59,54,48,48,36,26,29.93,29.76,5,1,13,0.00
2013-9-8,92,84,75,58,54,50,53,37,25,29.86,29.66,5,2,15,0.00
2013-9-9,90,80,72,64,59,52,76,50,35,29.80,29.65,11,2,17,0.00
2013-9-10,76,70,67,68,66,64,94,87,73,29.96,29.78,5,0,12,0.37
2013-9-11,80,71,67,70,67,64,96,87,64,30.01,29.91,4,0,9,0.53
2013-9-12,74,70,66,67,65,63,95,85,70,29.99,29.92,7,1,15,0.37
2013-9-13,76,71,66,68,64,58,94,80,59,29.97,29.83,6,1,15,1.00
2013-9-14,83,75,67,66,61,58,89,64,45,29.91,29.78,3,0,10,0.00
2013-9-15,87,74,62,63,61,56,93,65,40,29.94,29.83,4,1,11,0.00
2013-9-16,84,76,68,67,62,58,83,63,47,30.01,29.90,6,1,17,0.01
2013-9-17,85,77,69,65,62,60,77,62,46,29.99,29.81,5,2,15,0.01
2013-9-18,87,77,69,66,63,60,76,62,44,29.89,29.71,4,1,11,0.00
2013-9-19,87,74,64,66,63,60,92,70,40,29.86,29.72,9,1,19,0.00
2013-9-20,83,74,63,66,62,56,95,69,43,29.97,29.84,5,1,18,0.00
2013-9-21,80,71,63,62,59,55,87,68,46,30.03,29.85,5,1,12,0.00
2013-9-22,86,72,56,60,56,53,94,62,33,29.87,29.63,7,1,15,0.00
2013-9-23,84,70,56,59,50,37,88,55,20,29.95,29.69,4,0,10,0.00
2013-9-24,86,67,51,54,46,38,86,54,20,30.10,29.93,2,0,7,0.00
2013-9-25,90,70,51,60,52,46,90,60,25,29.94,29.69,7,1,13,0.00
2013-9-26,88,73,56,57,51,39,89,52,21,29.83,29.69,5,0,13,0.00
2013-9-27,86,75,62,60,52,42,63,46,22,29.86,29.66,12,3,24,0.00
2013-9-28,78,64,51,46,35,22,74,40,14,30.18,29.86,4,0,11,0.00
2013-9-29,84,61,42,52,41,33,84,54,18,30.25,30.03,3,0,9,0.00
2013-9-30,88,65,46,49,43,29,92,54,13,30.06,29.87,6,0,13,0.00
2013-10-1,90,65,44,45,39,25,88,48,10,30.02,29.88,4,0,10,0.00
2013-10-2,87,65,46,51,43,36,88,53,17,30.03,29.86,7,1,16,0.00
2013-10-3,86,66,48,50,44,32,90,54,16,29.96,29.78,11,2,16,0.00
2013-10-4,84,67,50,52,45,34,85,50,20,29.96,29.82,11,2,16,0.00
2013-10-5,74,60,47,42,29,21,76,35,16,30.22,29.96,5,1,14,0.00
2013-10-6,76,56,39,45,34,25,83,50,17,30.36,30.22,3,0,7,0.00
2013-10-7,81,58,38,48,38,28,90,57,16,30.34,30.11,6,0,11,0.00
2013-10-8,85,62,41,48,41,33,90,53,17,30.11,29.86,7,1,14,0.00
2013-10-9,84,66,45,51,43,40,88,49,23,29.96,29.80,8,1,14,0.00
2013-10-10,81,67,52,50,42,34,77,43,20,29.90,29.74,19,5,31,0.00
2013-10-11,76,58,42,48,41,38,87,58,25,30.03,29.90,11,2,16,0.00
2013-10-12,81,63,46,48,40,32,87,47,21,30.15,29.99,7,1,12,0.00
2013-10-13,82,68,52,56,49,42,76,52,31,30.08,29.92,8,1,13,0.00
2013-10-14,77,68,59,55,52,50,77,57,39,30.01,29.89,8,2,12,0.00
2013-10-15,75,64,56,56,51,38,86,64,40,30.03,29.88,9,2,17,0.00
2013-10-16,76,62,45,52,40,22,77,49,16,30.09,29.97,9,3,17,0.00
2013-10-17,77,54,37,43,34,21,84,53,13,30.19,29.98,3,0,9,0.00
2013-10-18,77,56,34,41,31,19,88,48,13,30.15,30.01,6,0,11,0.00
2013-10-19,73,54,37,43,35,27,84,53,23,30.28,30.06,5,0,11,0.00
2013-10-20,78,55,34,38,31,17,92,51,11,30.15,29.93,7,1,14,0.00
2013-10-21,72,55,35,38,34,28,84,49,26,30.22,30.00,6,1,14,0.00
2013-10-22,74,56,39,42,38,30,86,57,20,30.32,30.14,5,0,12,0.00
2013-10-23,78,56,37,46,39,33,89,59,22,30.27,30.10,5,1,12,0.00
2013-10-24,81,62,42,51,42,37,88,54,27,30.22,30.03,5,1,16,0.00
2013-10-25,79,67,53,50,45,37,82,48,26,30.15,29.99,6,2,19,0.02
2013-10-26,78,61,47,48,43,35,89,57,22,30.24,30.07,4,1,11,0.00
2013-10-27,75,58,41,48,43,37,89,61,32,30.21,29.94,4,1,12,0.00
2013-10-28,79,60,40,47,38,24,93,53,14,30.06,29.92,11,2,19,0.00
2013-10-29,70,62,55,48,40,31,68,46,23,30.02,29.90,1,0,9,0.00
2013-10-30,72,61,47,48,42,33,78,51,36,30.01,29.81,13,3,22,0.00
2013-10-31,69,52,32,34,26,18,81,42,16,30.20,29.99,8,1,13,0.00
2013-11-1,70,51,35,36,28,23,72,47,17,30.32,30.12,8,1,15,0.00
2013-11-2,72,52,32,34,28,22,82,47,15,30.43,30.13,6,1,13,0.00
2013-11-3,77,58,43,46,35,25,69,45,24,30.14,29.82,5,0,13,0.00
2013-11-4,73,58,43,53,47,40,91,68,42,29.97,29.81,5,1,12,0.00
2013-11-5,70,58,46,48,40,32,87,54,28,30.20,29.86,12,3,21,0.01
2013-11-6,66,48,33,33,25,15,76,46,15,30.50,30.19,4,0,9,0.00
2013-11-7,69,50,26,24,20,15,75,38,13,30.62,30.37,5,1,14,0.00
2013-11-8,73,53,37,43,33,22,80,49,26,30.37,30.07,4,0,10,0.00
2013-11-9,76,52,34,43,35,30,89,59,21,30.29,30.16,2,0,6,0.00
2013-11-10,77,53,33,36,32,28,85,52,17,30.39,30.22,4,0,9,0.00
2013-11-11,78,56,37,41,35,30,77,51,25,30.33,30.17,4,0,8,0.00
2013-11-12,63,53,40,43,38,30,77,58,42,30.61,30.31,11,4,24,0.00
2013-11-13,60,54,48,42,40,38,72,61,50,30.60,30.21,5,2,14,0.00
2013-11-14,72,56,39,45,41,36,89,60,31,30.21,29.97,4,0,8,0.00
2013-11-15,72,56,38,50,44,35,92,65,39,30.05,29.80,12,3,22,0.00
2013-11-16,75,63,51,50,44,34,87,54,22,29.89,29.71,15,4,25,0.00
2013-11-17,70,58,46,44,40,35,79,53,28,30.15,29.87,12,4,18,0.00
2013-11-18,72,55,44,40,38,36,74,55,30,30.25,30.11,3,0,7,0.00
2013-11-19,74,55,38,43,38,33,83,57,30,30.16,29.93,7,1,11,0.00
2013-11-20,73,54,38,42,38,34,86,57,27,30.03,29.88,7,1,14,0.00
2013-11-21,73,59,39,45,40,34,83,51,33,30.10,29.98,7,1,11,0.00
2013-11-22,64,46,38,38,32,26,70,58,36,30.44,30.00,17,10,33,0.00
2013-11-23,43,39,34,30,28,25,76,64,56,30.59,30.43,13,8,30,0.00
2013-11-24,37,34,30,30,27,24,86,76,69,30.54,30.40,10,3,22,0.05
2013-11-25,46,37,33,35,31,29,92,79,63,30.52,30.36,8,1,13,0.00
2013-11-26,54,38,24,34,28,22,92,70,36,30.67,30.51,3,0,9,0.01
2013-11-27,49,36,25,32,26,22,92,71,39,30.62,30.41,6,0,12,0.00
2013-11-28,58,39,21,31,26,18,92,66,31,30.52,30.38,4,0,9,0.00
2013-11-29,65,44,27,36,31,24,90,65,34,30.54,30.35,3,0,6,0.00
2013-11-30,63,47,32,40,35,28,89,66,39,30.45,30.29,5,0,10,0.00
2013-12-1,63,51,42,42,40,36,80,66,44,30.35,30.22,4,0,10,0.00
2013-12-2,68,49,37,37,29,19,82,50,19,30.24,30.00,7,1,11,0.00
2013-12-3,72,54,38,32,23,13,57,33,12,30.01,29.80,15,2,19,0.00
2013-12-4,72,57,40,47,36,29,85,50,23,29.91,29.73,21,7,31,0.00
2013-12-5,59,49,41,44,37,32,79,63,47,30.08,29.84,14,4,19,0.00
2013-12-6,52,40,29,32,23,5,87,55,15,30.29,30.08,10,2,15,0.00
2013-12-7,42,37,29,34,31,26,89,79,67,30.29,30.12,13,8,21,0.00
2013-12-8,55,38,21,31,25,19,92,63,33,30.27,30.14,17,4,23,0.01
2013-12-9,55,38,22,33,19,6,85,51,21,30.58,30.19,17,4,22,0.00
2013-12-10,51,35,22,8,4,0,44,29,13,30.63,30.42,6,2,14,0.00
2013-12-11,58,42,28,22,13,5,41,31,19,30.62,30.48,5,2,14,0.00
2013-12-12,45,40,35,39,31,18,90,73,39,30.62,30.32,5,0,8,0.05
2013-12-13,59,45,32,42,36,30,96,73,44,30.33,30.13,17,3,25,0.01
2013-12-14,55,40,25,33,26,21,92,63,31,30.57,30.22,6,0,12,0.00
2013-12-15,58,39,24,27,22,19,86,56,25,30.59,30.44,5,1,11,0.00
2013-12-16,64,42,27,27,24,20,79,52,24,30.56,30.40,6,1,9,0.00
2013-12-17,66,47,34,28,25,23,68,46,22,30.54,30.36,5,0,9,0.00
2013-12-18,62,45,26,29,25,18,80,50,26,30.40,30.09,2,0,5,0.00
2013-12-19,71,48,26,28,19,8,76,40,9,30.09,29.83,13,2,24,0.00
2013-12-20,61,47,39,46,33,17,89,62,37,29.90,29.67,12,1,15,0.09
2013-12-21,48,42,36,38,33,29,90,71,52,30.08,29.76,22,11,34,0.02
2013-12-22,54,42,27,33,26,18,79,57,25,30.45,30.08,9,1,16,0.00
2013-12-23,56,37,22,28,22,18,89,62,26,30.68,30.45,5,0,7,0.00
2013-12-24,58,37,20,28,23,16,92,61,30,30.63,30.36,2,0,9,0.00
2013-12-25,55,41,25,29,25,20,83,56,30,30.61,30.43,5,1,14,0.00
2013-12-26,54,39,24,28,24,19,83,57,33,30.58,30.39,3,0,12,0.00
2013-12-27,56,37,21,24,20,16,85,56,26,30.61,30.45,3,0,9,0.00
2013-12-28,58,38,20,29,22,14,81,56,31,30.46,30.16,6,0,12,0.00
2013-12-29,51,42,33,28,24,20,71,52,38,30.40,30.15,7,2,15,0.00
2013-12-30,57,38,22,26,20,16,82,54,22,30.56,30.39,6,1,10,0.00
2013-12-31,60,39,23,24,19,14,72,49,23,30.58,30.36,2,0,6,0.00
2014-1-1,64,40,21,25,20,14,76,49,20,30.44,30.24,4,0,11,0.00
2014-1-2,57,43,29,29,23,17,66,47,28,30.57,30.38,7,1,17,0.00